Time;durP1;ratioP1;P1;durP2;ratioP2;P2;SDS_P1;SDS_P2;PMS_P1;PMS_P2;Temp;Humidity;BMP_temperature;BMP_pressure;BME280_temperature;BME280_humidity;BME280_pressure;Samples;Min_cycle;Max_cycle;Signal;HPM_P1;HPM_P2
2023/05/06 00:00:08;;;;;;;0.90;0.90;;;;;;;15.30;48.92;100175.33;104321;1275;60342;-62
2023/05/06 00:02:38;;;;;;;5.20;1.10;;;;;;;15.34;48.35;100181.67;104429;1253;61251;-62
2023/05/06 00:05:05;;;;;;;1.00;0.90;;;;;;;15.30;48.33;100181.17;104343;1259;74861;-62
2023/05/06 00:07:33;;;;;;;1.00;1.00;;;;;;;15.29;48.17;100183.18;104357;1263;70511;-61
2023/05/06 00:10:00;;;;;;;1.40;1.10;;;;;;;15.28;48.39;100183.21;104306;1260;73512;-61
2023/05/06 00:12:27;;;;;;;1.40;1.30;;;;;;;15.27;48.53;100187.67;104466;1275;61180;-61
2023/05/06 00:14:54;;;;;;;0.80;0.80;;;;;;;15.17;49.07;100189.48;104391;1259;60552;-61
2023/05/06 00:17:21;;;;;;;1.10;1.00;;;;;;;14.98;50.31;100192.20;104479;1255;74175;-61
2023/05/06 00:19:48;;;;;;;2.10;0.90;;;;;;;15.16;48.90;100191.46;104291;1254;70160;-61
2023/05/06 00:22:16;;;;;;;6.60;1.20;;;;;;;15.12;49.46;100194.12;104340;1257;73558;-61
2023/05/06 00:24:43;;;;;;;1.30;1.10;;;;;;;15.15;49.60;100197.64;104425;1259;61148;-61
2023/05/06 00:27:10;;;;;;;0.80;0.80;;;;;;;15.19;50.21;100199.77;104473;1256;60644;-62
2023/05/06 00:29:37;;;;;;;1.50;0.80;;;;;;;15.22;50.06;100196.75;104247;1257;73948;-61
2023/05/06 00:32:04;;;;;;;1.20;1.00;;;;;;;15.24;49.83;100201.09;104427;1254;70855;-61
2023/05/06 00:34:31;;;;;;;0.90;0.80;;;;;;;15.26;49.83;100203.46;104405;1263;72519;-61
2023/05/06 00:36:58;;;;;;;4.00;1.50;;;;;;;15.24;49.15;100203.55;104403;1254;60894;-62
2023/05/06 00:39:25;;;;;;;1.10;1.00;;;;;;;15.20;49.40;100206.23;104388;1253;61121;-62
2023/05/06 00:41:52;;;;;;;1.90;1.10;;;;;;;15.16;48.92;100201.52;104373;1270;73061;-61
2023/05/06 00:44:20;;;;;;;1.00;0.90;;;;;;;15.15;49.35;100204.20;104351;1259;70266;-62
2023/05/06 00:46:47;;;;;;;2.70;1.10;;;;;;;15.11;49.92;100208.32;104316;1254;71928;-61
2023/05/06 00:49:14;;;;;;;2.00;1.10;;;;;;;15.11;50.27;100214.45;104264;1255;61007;-62
2023/05/06 00:51:41;;;;;;;1.10;0.90;;;;;;;15.14;51.30;100215.75;104410;1258;60587;-62
2023/05/06 00:54:08;;;;;;;1.20;0.90;;;;;;;15.14;51.21;100213.79;104316;1260;76150;-63
2023/05/06 00:56:35;;;;;;;1.10;0.90;;;;;;;15.12;50.61;100218.31;104370;1257;69536;-63
2023/05/06 00:59:02;;;;;;;2.40;0.90;;;;;;;15.05;50.17;100223.09;104248;1273;73069;-62
2023/05/06 01:01:30;;;;;;;1.10;1.00;;;;;;;15.08;50.17;100226.30;104498;1257;63435;-62
2023/05/06 01:03:58;;;;;;;1.80;1.00;;;;;;;15.07;51.06;100227.42;104577;1275;61618;-63
2023/05/06 01:06:31;;;;;;;1.10;1.00;;;;;;;15.08;51.39;100227.52;104366;1257;74857;-63
2023/05/06 01:09:11;;;;;;;1.40;1.00;;;;;;;15.12;52.31;100225.36;104333;1259;69362;-63
2023/05/06 01:11:46;;;;;;;2.00;0.90;;;;;;;15.15;52.10;100229.45;104378;1273;73814;-64
2023/05/06 01:14:22;;;;;;;1.20;0.90;;;;;;;15.13;51.49;100226.73;104448;1254;62239;-63
2023/05/06 01:16:52;;;;;;;2.00;1.30;;;;;;;15.11;51.60;100225.22;104336;1258;60459;-63
2023/05/06 01:19:40;;;;;;;2.50;1.10;;;;;;;15.11;51.27;100224.69;104379;1254;74012;-63
2023/05/06 01:22:09;;;;;;;2.30;1.10;;;;;;;15.10;52.22;100226.21;104460;1260;69947;-63
2023/05/06 01:24:36;;;;;;;;;;;;;;;15.10;51.83;100223.90;104415;1267;72892;-63
2023/05/06 01:27:03;;;;;;;;;;;;;;;15.15;51.62;100226.64;104280;1270;61297;-63
2023/05/06 01:29:31;;;;;;;1.00;0.90;;;;;;;15.12;50.88;100229.25;104281;1273;61825;-62
2023/05/06 01:32:06;;;;;;;2.70;0.90;;;;;;;15.05;51.24;100231.02;104437;1258;73896;-63
2023/05/06 01:34:45;;;;;;;1.30;0.90;;;;;;;15.08;51.56;100230.52;104516;1256;70025;-62
2023/05/06 01:37:31;;;;;;;0.80;0.80;;;;;;;15.07;50.20;100225.45;104410;1252;72884;-63
2023/05/06 01:39:59;;;;;;;1.50;0.90;;;;;;;15.04;51.45;100230.89;104297;1259;63568;-63
2023/05/06 01:42:26;;;;;;;;;;;;;;;15.03;51.21;100228.17;104371;1254;60972;-63
2023/05/06 01:44:54;;;;;;;0.90;0.80;;;;;;;15.05;50.65;100229.63;104430;1260;73711;-63
2023/05/06 01:47:21;;;;;;;;;;;;;;;14.97;51.07;100240.12;104911;1259;70284;-63
2023/05/06 01:49:48;;;;;;;1.50;1.40;;;;;;;14.96;51.50;100238.00;104357;1256;72826;-63
2023/05/06 01:52:15;;;;;;;1.00;0.90;;;;;;;14.90;51.05;100242.96;104354;1256;61255;-62
2023/05/06 01:54:43;;;;;;;1.10;1.00;;;;;;;14.84;50.82;100241.80;104545;1260;61546;-63
2023/05/06 01:57:10;;;;;;;1.50;1.20;;;;;;;14.85;50.88;100249.00;104556;1257;74588;-63
2023/05/06 01:59:37;;;;;;;1.20;1.00;;;;;;;14.79;51.18;100248.95;104328;1267;70684;-63
2023/05/06 02:02:05;;;;;;;0.90;0.90;;;;;;;14.74;51.61;100255.35;104324;1275;73457;-64
2023/05/06 02:04:32;;;;;;;0.90;0.90;;;;;;;14.75;51.28;100263.11;104487;1254;61516;-64
2023/05/06 02:06:59;;;;;;;1.20;1.10;;;;;;;14.75;51.76;100263.11;104364;1267;59966;-63
2023/05/06 02:09:27;;;;;;;1.10;1.10;;;;;;;14.73;51.25;100267.45;104387;1258;74458;-63
2023/05/06 02:11:59;;;;;;;0.70;0.70;;;;;;;14.71;51.27;100267.34;104308;1268;70304;-63
2023/05/06 02:14:26;;;;;;;1.80;1.40;;;;;;;14.68;51.63;100266.98;104471;1257;73186;-62
2023/05/06 02:16:54;;;;;;;0.70;0.70;;;;;;;14.70;51.41;100267.91;104354;1261;61457;-63
2023/05/06 02:19:21;;;;;;;2.00;0.90;;;;;;;14.72;51.34;100268.02;104416;1253;60563;-63
2023/05/06 02:21:48;;;;;;;0.90;0.90;;;;;;;14.73;50.94;100273.44;104378;1260;73883;-63
2023/05/06 02:24:15;;;;;;;1.20;1.10;;;;;;;14.70;51.25;100274.48;104418;1267;69775;-62
2023/05/06 02:26:42;;;;;;;0.80;0.80;;;;;;;14.67;51.21;100276.05;104319;1259;72530;-63
2023/05/06 02:29:09;;;;;;;2.50;1.00;;;;;;;14.64;51.28;100273.73;104696;1257;61071;-63
2023/05/06 02:31:36;;;;;;;1.90;1.20;;;;;;;14.54;51.56;100274.69;104431;1259;60853;-62
2023/05/06 02:34:04;;;;;;;1.40;1.00;;;;;;;14.46;51.40;100274.55;104367;1270;73786;-62
2023/05/06 02:36:32;;;;;;;1.00;0.80;;;;;;;14.42;51.27;100274.39;104417;1259;69540;-62
2023/05/06 02:38:59;;;;;;;3.60;1.10;;;;;;;14.34;51.64;100272.30;104481;1266;73978;-62
2023/05/06 02:41:26;;;;;;;1.00;0.80;;;;;;;14.26;52.01;100277.30;104525;1260;61336;-63
2023/05/06 02:43:53;;;;;;;2.30;0.80;;;;;;;14.21;52.07;100285.27;104328;1255;60540;-62
2023/05/06 02:46:20;;;;;;;0.80;0.80;;;;;;;14.13;52.14;100288.48;104813;1252;73986;-62
2023/05/06 02:48:48;;;;;;;0.90;0.90;;;;;;;14.02;52.19;100296.23;104334;1266;69780;-61
2023/05/06 02:51:15;;;;;;;0.90;0.80;;;;;;;13.95;52.14;100298.63;104858;1257;73284;-62
2023/05/06 02:53:42;;;;;;;0.90;0.90;;;;;;;13.94;52.50;100302.75;104391;1259;61203;-64
2023/05/06 02:56:09;;;;;;;1.00;1.00;;;;;;;13.87;52.29;100306.59;104455;1260;60851;-63
2023/05/06 02:58:36;;;;;;;1.00;1.00;;;;;;;13.81;52.60;100307.41;104470;1257;74063;-62
2023/05/06 03:01:04;;;;;;;0.90;0.80;;;;;;;13.87;52.47;100300.60;104436;1259;69982;-62
2023/05/06 03:03:32;;;;;;;1.10;0.80;;;;;;;13.91;52.37;100299.23;104441;1255;73263;-63
2023/05/06 03:05:59;;;;;;;;;;;;;;;13.94;52.45;100299.61;104423;1276;61854;-63
2023/05/06 03:08:26;;;;;;;0.80;0.80;;;;;;;13.98;52.28;100306.64;104678;1260;60556;-62
2023/05/06 03:10:54;;;;;;;;;;;;;;;14.00;52.27;100311.81;104550;1266;73627;-64
2023/05/06 03:13:21;;;;;;;0.50;0.50;;;;;;;14.05;52.79;100312.33;104478;1259;70816;-62
2023/05/06 03:15:53;;;;;;;0.70;0.70;;;;;;;14.05;52.66;100312.66;104477;1272;71980;-61
2023/05/06 03:18:20;;;;;;;1.00;0.70;;;;;;;14.08;52.69;100310.77;104463;1260;60953;-62
2023/05/06 03:20:48;;;;;;;0.70;0.70;;;;;;;14.09;52.40;100309.50;104441;1257;60632;-61
2023/05/06 03:23:15;;;;;;;1.10;0.80;;;;;;;14.11;52.07;100315.70;104481;1254;75025;-61
2023/05/06 03:25:43;;;;;;;1.00;0.80;;;;;;;14.10;52.06;100319.84;104369;1261;70254;-61
2023/05/06 03:28:10;;;;;;;0.80;0.80;;;;;;;14.03;51.76;100326.33;104439;1255;73020;-62
2023/05/06 03:30:38;;;;;;;0.60;0.60;;;;;;;14.03;51.61;100337.77;104400;1272;61330;-62
2023/05/06 03:33:06;;;;;;;;;;;;;;;13.99;51.93;100343.94;104297;1276;62535;-62
2023/05/06 03:35:33;;;;;;;1.00;0.70;;;;;;;14.01;51.60;100353.53;104361;1257;74632;-61
2023/05/06 03:38:01;;;;;;;2.30;0.50;;;;;;;13.98;51.47;100356.11;104597;1258;70160;-61
2023/05/06 03:40:34;;;;;;;2.50;0.50;;;;;;;13.99;51.32;100363.83;104395;1258;73363;-64
2023/05/06 03:43:02;;;;;;;2.40;0.90;;;;;;;14.01;51.16;100372.95;104454;1260;62407;-64
2023/05/06 03:45:29;;;;;;;0.70;0.70;;;;;;;14.08;51.11;100370.16;104819;1258;60609;-64
2023/05/06 03:47:58;;;;;;;0.90;0.80;;;;;;;14.19;50.74;100365.38;104303;1259;76505;-62
2023/05/06 03:50:26;;;;;;;0.70;0.70;;;;;;;14.31;50.21;100359.38;104543;1257;71630;-61
2023/05/06 03:52:53;;;;;;;4.00;1.10;;;;;;;14.37;50.12;100348.34;104423;1260;72703;-61
2023/05/06 03:55:22;;;;;;;1.20;0.90;;;;;;;14.44;49.58;100347.67;104652;1271;60884;-60
2023/05/06 03:57:49;;;;;;;1.20;0.80;;;;;;;14.52;49.21;100359.30;104460;1259;60475;-60
2023/05/06 04:00:17;;;;;;;;;;;;;;;14.52;49.11;100362.63;104335;1258;74216;-62
2023/05/06 04:02:45;;;;;;;2.30;0.90;;;;;;;14.54;48.87;100366.44;104401;1260;69248;-62
2023/05/06 04:05:18;;;;;;;1.30;0.90;;;;;;;14.44;48.72;100364.42;104383;1254;72973;-61
2023/05/06 04:07:46;;;;;;;2.10;0.80;;;;;;;14.42;48.65;100368.05;104423;1260;61231;-65
2023/05/06 04:10:13;;;;;;;1.20;0.80;;;;;;;14.44;48.62;100371.29;104677;1257;60629;-63
2023/05/06 04:12:41;;;;;;;2.10;0.70;;;;;;;14.36;48.44;100362.31;104640;1263;74245;-63
2023/05/06 04:15:10;;;;;;;1.00;1.00;;;;;;;14.36;48.09;100357.23;104963;1257;70103;-64
2023/05/06 04:17:37;;;;;;;1.70;1.00;;;;;;;14.39;48.33;100368.53;105594;1254;75116;-61
2023/05/06 04:20:10;;;;;;;1.40;1.10;;;;;;;14.42;48.30;100374.39;104486;1256;62808;-64
2023/05/06 04:22:38;;;;;;;1.60;1.00;;;;;;;14.44;47.94;100373.27;104363;1254;60854;-63
2023/05/06 04:26:37;;;;;;;3.30;0.90;;;;;;;13.66;51.94;100375.66;101373;1291;617539;-62
2023/05/06 04:29:04;;;;;;;1.10;0.90;;;;;;;14.69;47.64;100380.89;103869;1270;59315;-60
2023/05/06 04:31:33;;;;;;;1.20;1.00;;;;;;;14.77;47.17;100380.14;103878;1267;60029;-62
2023/05/06 04:34:03;;;;;;;1.60;0.90;;;;;;;14.77;46.87;100383.35;103609;1270;72205;-62
2023/05/06 04:36:30;;;;;;;1.60;1.00;;;;;;;14.79;46.68;100389.06;103449;1272;69092;-62
2023/05/06 04:39:09;;;;;;;1.70;0.90;;;;;;;14.81;46.21;100394.97;102926;1271;921074;-62
2023/05/06 04:41:36;;;;;;;;;;;;;;;14.78;46.18;100402.71;104270;1268;61144;-62
2023/05/06 04:44:04;;;;;;;1.30;1.20;;;;;;;14.85;45.79;100398.48;103944;1263;59358;-67
2023/05/06 04:46:32;;;;;;;1.00;1.00;;;;;;;14.85;45.63;100398.84;104417;1258;72942;-69
2023/05/06 04:49:00;;;;;;;0.90;0.70;;;;;;;14.87;45.70;100401.07;104351;1257;70593;-67
2023/05/06 04:51:28;;;;;;;2.40;1.00;;;;;;;14.97;45.53;100397.40;104312;1272;72912;-66
2023/05/06 04:53:55;;;;;;;2.50;1.70;;;;;;;15.02;45.33;100395.02;104351;1260;62051;-67
2023/05/06 04:56:22;;;;;;;0.90;0.80;;;;;;;15.02;44.89;100393.09;104457;1254;60111;-67
2023/05/06 04:58:49;;;;;;;1.70;1.10;;;;;;;15.06;44.69;100393.22;104314;1262;72526;-64
2023/05/06 05:01:18;;;;;;;1.20;1.00;;;;;;;15.11;44.61;100385.04;104390;1259;69906;-67
2023/05/06 05:03:45;;;;;;;1.20;1.10;;;;;;;15.16;44.39;100387.43;104412;1270;72247;-64
2023/05/06 05:06:12;;;;;;;1.40;1.30;;;;;;;15.21;44.14;100388.96;104480;1253;61302;-62
2023/05/06 05:08:40;;;;;;;4.20;1.10;;;;;;;15.22;43.65;100389.25;104418;1254;60370;-67
2023/05/06 05:11:08;;;;;;;1.50;1.00;;;;;;;15.26;43.51;100390.83;104769;1259;72975;-63
2023/05/06 05:13:35;;;;;;;2.70;0.90;;;;;;;15.29;42.96;100396.35;104838;1254;70489;-66
2023/05/06 05:16:03;;;;;;;0.80;0.80;;;;;;;15.32;43.06;100398.30;104468;1256;72606;-61
2023/05/06 05:18:31;;;;;;;1.40;1.20;;;;;;;15.29;43.57;100402.48;104398;1268;60814;-63
2023/05/06 05:21:02;;;;;;;1.70;0.80;;;;;;;15.31;42.86;100400.83;104283;1261;60507;-63
2023/05/06 05:23:30;;;;;;;2.50;0.90;;;;;;;15.38;43.21;100398.52;104562;1254;73267;-63
2023/05/06 05:25:58;;;;;;;1.10;0.80;;;;;;;15.40;42.89;100404.27;104381;1268;69018;-64
2023/05/06 05:28:24;;;;;;;2.80;1.00;;;;;;;15.47;42.52;100403.39;104398;1259;72958;-63
2023/05/06 05:30:53;;;;;;;0.90;0.80;;;;;;;15.53;42.17;100404.27;104536;1258;59724;-64
2023/05/06 05:33:21;;;;;;;1.80;0.90;;;;;;;15.62;42.02;100403.85;105445;1259;60416;-65
2023/05/06 05:35:48;;;;;;;3.30;0.80;;;;;;;15.70;41.76;100402.55;105645;1260;72323;-64
2023/05/06 05:38:15;;;;;;;1.20;0.90;;;;;;;15.81;41.57;100396.36;104418;1259;69719;-64
2023/05/06 05:40:43;;;;;;;1.30;0.90;;;;;;;15.94;41.40;100395.16;105117;1256;73001;-64
2023/05/06 05:43:10;;;;;;;3.40;1.80;;;;;;;16.00;41.35;100394.10;105480;1257;59544;-65
2023/05/06 05:45:38;;;;;;;3.10;1.90;;;;;;;16.11;40.84;100388.05;106314;1255;60727;-65
2023/05/06 05:48:05;;;;;;;4.20;2.30;;;;;;;16.24;41.03;100392.27;104680;1260;73214;-65
2023/05/06 05:50:34;;;;;;;2.90;1.60;;;;;;;16.29;40.50;100399.41;104649;1256;68882;-68
2023/05/06 05:53:01;;;;;;;1.40;1.20;;;;;;;16.39;40.26;100398.55;104707;1259;73405;-65
2023/05/06 05:55:29;;;;;;;1.70;1.20;;;;;;;16.44;39.98;100400.42;105427;1261;59909;-66
2023/05/06 05:57:56;;;;;;;1.00;0.90;;;;;;;16.43;39.08;100404.33;105925;1256;60201;-65
2023/05/06 06:00:24;;;;;;;3.20;0.90;;;;;;;16.49;38.60;100401.33;107241;1256;72432;-65
2023/05/06 06:02:52;;;;;;;0.90;0.80;;;;;;;16.54;39.09;100405.67;107575;1258;70562;-65
2023/05/06 06:05:20;;;;;;;3.50;0.80;;;;;;;16.65;38.95;100401.55;107537;1256;72050;-63
2023/05/06 06:07:47;;;;;;;0.90;0.70;;;;;;;16.75;38.59;100404.34;107841;1255;59712;-62
2023/05/06 06:10:14;;;;;;;0.70;0.60;;;;;;;16.85;38.11;100400.98;107648;1256;60233;-62
2023/05/06 06:12:43;;;;;;;1.20;0.80;;;;;;;16.95;38.51;100403.06;107957;1254;73032;-62
2023/05/06 06:15:10;;;;;;;1.10;0.80;;;;;;;17.00;37.01;100406.35;107393;1257;69933;-62
2023/05/06 06:17:40;;;;;;;0.90;0.80;;;;;;;17.07;37.87;100404.66;106089;1260;72640;-64
2023/05/06 06:20:08;;;;;;;2.80;0.90;;;;;;;17.14;37.71;100408.69;104716;1259;60308;-64
2023/05/06 06:22:35;;;;;;;0.80;0.50;;;;;;;17.26;36.85;100409.07;104711;1258;59647;-66
2023/05/06 06:25:03;;;;;;;5.00;0.60;;;;;;;17.25;35.34;100409.85;104935;1253;72034;-64
2023/05/06 06:27:34;;;;;;;0.80;0.80;;;;;;;17.27;35.77;100414.48;105075;1256;69907;-63
2023/05/06 06:30:04;;;;;;;0.80;0.70;;;;;;;17.29;34.06;100413.30;104922;1266;72762;-63
2023/05/06 06:32:31;;;;;;;2.10;0.80;;;;;;;17.34;35.19;100415.33;104906;1256;59750;-64
2023/05/06 06:34:58;;;;;;;1.10;1.00;;;;;;;17.34;34.76;100411.40;104222;1270;59800;-63
2023/05/06 06:37:25;;;;;;;0.80;0.80;;;;;;;17.37;34.39;100419.94;104345;1254;72438;-63
2023/05/06 06:39:52;;;;;;;1.20;1.00;;;;;;;17.39;33.88;100421.61;104364;1269;70027;-64
2023/05/06 06:42:19;;;;;;;1.60;0.80;;;;;;;17.39;33.76;100423.89;104919;1262;72031;-64
2023/05/06 06:44:58;;;;;;;1.20;0.80;;;;;;;17.55;33.52;100421.20;104610;1262;60476;-64
2023/05/06 06:47:25;;;;;;;1.00;0.60;;;;;;;17.69;33.46;100418.78;104881;1258;60302;-64
2023/05/06 06:49:52;;;;;;;1.50;0.70;;;;;;;17.83;33.16;100422.02;104607;1269;72388;-65
2023/05/06 06:52:19;;;;;;;1.70;0.60;;;;;;;17.88;32.35;100417.81;104679;1257;68693;-64
2023/05/06 06:54:46;;;;;;;1.00;0.80;;;;;;;17.96;32.70;100432.23;104662;1256;72760;-64
2023/05/06 06:57:13;;;;;;;1.10;0.70;;;;;;;18.02;32.70;100423.88;104279;1274;60171;-64
2023/05/06 06:59:39;;;;;;;2.70;0.80;;;;;;;18.08;31.61;100419.77;104630;1253;59743;-66
2023/05/06 07:02:07;;;;;;;2.40;0.90;;;;;;;18.09;32.11;100428.25;105131;1256;72190;-65
2023/05/06 07:04:34;;;;;;;0.70;0.70;;;;;;;18.10;31.57;100427.31;104437;1257;69055;-64
2023/05/06 07:07:01;;;;;;;1.50;0.70;;;;;;;18.19;31.63;100424.80;104646;1253;73420;-65
2023/05/06 07:09:28;;;;;;;0.80;0.70;;;;;;;18.23;31.38;100429.46;104684;1256;59761;-65
2023/05/06 07:11:55;;;;;;;0.70;0.70;;;;;;;18.33;31.73;100427.48;105328;1263;60142;-66
2023/05/06 07:14:24;;;;;;;1.70;0.70;;;;;;;18.39;31.79;100425.12;105140;1256;73379;-65
2023/05/06 07:16:51;;;;;;;1.00;0.70;;;;;;;18.41;31.45;100426.64;104697;1261;69850;-66
2023/05/06 07:19:19;;;;;;;0.70;0.70;;;;;;;18.43;31.00;100424.73;104844;1256;73775;-66
2023/05/06 07:21:47;;;;;;;5.40;0.70;;;;;;;18.39;31.02;100420.69;104636;1257;61063;-67
2023/05/06 07:24:14;;;;;;;0.80;0.80;;;;;;;18.38;31.33;100420.80;105214;1254;59966;-65
2023/05/06 07:26:41;;;;;;;1.30;0.90;;;;;;;18.40;29.91;100419.73;104512;1257;73773;-66
2023/05/06 07:29:08;;;;;;;1.50;1.00;;;;;;;18.43;30.64;100422.02;105074;1253;68704;-66
2023/05/06 07:31:34;;;;;;;2.00;0.90;;;;;;;18.50;30.39;100423.70;104669;1254;72574;-66
2023/05/06 07:34:02;;;;;;;0.50;0.50;;;;;;;18.64;30.48;100418.25;104675;1259;59972;-66
2023/05/06 07:36:34;;;;;;;0.80;0.80;;;;;;;18.76;30.79;100410.54;104396;1257;60417;-65
2023/05/06 07:39:01;;;;;;;1.90;0.90;;;;;;;18.82;30.35;100417.80;104449;1256;72300;-65
2023/05/06 07:41:28;;;;;;;0.70;0.70;;;;;;;18.85;30.16;100417.95;105199;1258;68588;-65
2023/05/06 07:43:55;;;;;;;0.90;0.70;;;;;;;18.93;29.93;100422.61;104732;1253;72083;-64
2023/05/06 07:46:22;;;;;;;0.80;0.80;;;;;;;19.07;30.01;100418.48;104690;1259;60557;-67
2023/05/06 07:48:49;;;;;;;1.30;0.50;;;;;;;19.10;29.35;100420.95;104855;1257;60175;-65
2023/05/06 07:51:16;;;;;;;0.90;0.70;;;;;;;19.12;28.77;100425.58;105074;1257;72070;-65
2023/05/06 07:53:44;;;;;;;1.40;1.00;;;;;;;19.14;29.49;100421.23;104875;1253;68771;-66
2023/05/06 07:56:11;;;;;;;1.50;0.90;;;;;;;19.10;29.11;100416.89;104641;1257;72692;-65
2023/05/06 07:58:38;;;;;;;0.80;0.80;;;;;;;19.12;29.20;100423.66;104840;1253;59864;-64
2023/05/06 08:01:05;;;;;;;0.90;0.70;;;;;;;19.25;29.44;100423.52;104426;1272;59655;-67
2023/05/06 08:03:32;;;;;;;0.90;0.70;;;;;;;19.38;29.15;100421.55;104460;1269;72274;-65
2023/05/06 08:06:00;;;;;;;1.10;0.90;;;;;;;19.50;28.64;100431.48;104648;1256;69388;-67
2023/05/06 08:08:27;;;;;;;1.10;0.70;;;;;;;19.53;27.97;100422.20;104358;1254;71830;-67
2023/05/06 08:10:54;;;;;;;1.60;0.70;;;;;;;19.54;27.99;100423.72;104580;1256;60246;-66
2023/05/06 08:13:22;;;;;;;2.80;1.10;;;;;;;19.53;28.06;100421.83;104531;1266;60165;-67
2023/05/06 08:15:50;;;;;;;2.50;0.90;;;;;;;19.57;28.25;100428.86;104704;1251;72704;-68
2023/05/06 08:18:17;;;;;;;1.80;0.90;;;;;;;19.66;28.03;100423.27;104556;1260;69360;-68
2023/05/06 08:20:50;;;;;;;2.10;1.10;;;;;;;19.64;27.44;100428.58;104409;1258;72441;-66
2023/05/06 08:23:17;;;;;;;2.10;1.00;;;;;;;19.61;26.59;100425.02;104400;1257;60832;-66
2023/05/06 08:25:45;;;;;;;0.80;0.70;;;;;;;19.64;27.18;100425.89;104410;1256;59745;-66
2023/05/06 08:28:12;;;;;;;4.10;0.70;;;;;;;19.77;26.94;100431.38;104322;1257;73463;-66
2023/05/06 08:30:39;;;;;;;2.60;1.00;;;;;;;19.91;26.71;100430.85;105057;1259;70986;-67
2023/05/06 08:33:06;;;;;;;4.20;1.10;;;;;;;19.90;26.48;100424.35;104280;1254;74335;-69
2023/05/06 08:35:33;;;;;;;2.50;1.10;;;;;;;19.83;26.60;100426.72;104298;1255;60556;-68
2023/05/06 08:38:01;;;;;;;1.20;1.10;;;;;;;19.85;26.33;100424.14;104568;1257;60594;-66
2023/05/06 08:40:28;;;;;;;0.90;0.80;;;;;;;19.85;26.30;100431.39;104680;1256;73025;-68
2023/05/06 08:42:56;;;;;;;0.80;0.70;;;;;;;19.86;25.82;100427.95;104360;1275;69671;-67
2023/05/06 08:45:23;;;;;;;1.80;0.80;;;;;;;19.91;26.05;100424.61;104721;1257;72136;-66
2023/05/06 08:47:50;;;;;;;1.00;0.90;;;;;;;19.90;26.05;100427.66;104444;1257;60511;-66
2023/05/06 08:50:18;;;;;;;1.20;0.90;;;;;;;19.88;26.47;100421.06;104355;1260;60503;-67
2023/05/06 08:52:45;;;;;;;0.90;0.70;;;;;;;19.94;26.05;100430.44;104518;1265;73026;-67
2023/05/06 08:55:12;;;;;;;0.80;0.80;;;;;;;20.03;26.36;100428.77;104212;1270;69017;-67
2023/05/06 08:57:39;;;;;;;0.80;0.80;;;;;;;20.11;25.68;100433.73;104586;1259;72667;-67
2023/05/06 09:00:09;;;;;;;1.30;1.20;;;;;;;20.17;25.71;100437.35;104472;1254;60553;-71
2023/05/06 09:02:38;;;;;;;2.60;0.80;;;;;;;20.17;25.02;100435.23;104435;1256;61874;-69
2023/05/06 09:05:09;;;;;;;1.10;1.00;;;;;;;20.17;25.74;100435.20;104914;1259;75736;-68
2023/05/06 09:07:38;;;;;;;1.10;1.00;;;;;;;20.23;25.64;100437.66;104541;1260;70989;-69
2023/05/06 09:10:12;;;;;;;1.80;1.20;;;;;;;20.32;25.38;100439.48;104617;1257;72954;-68
2023/05/06 09:12:39;;;;;;;4.20;1.00;;;;;;;20.44;25.56;100436.87;104627;1260;60885;-67
2023/05/06 09:15:08;;;;;;;1.60;1.00;;;;;;;20.58;25.34;100438.39;104833;1254;60952;-70
2023/05/06 09:17:35;;;;;;;2.30;0.90;;;;;;;20.68;25.43;100430.02;104664;1268;74621;-66
2023/05/06 09:20:05;;;;;;;1.50;0.70;;;;;;;20.73;25.16;100433.45;105120;1259;69144;-69
2023/05/06 09:22:32;;;;;;;0.70;0.70;;;;;;;20.89;25.40;100429.25;104745;1256;72137;-68
2023/05/06 09:25:00;;;;;;;2.70;1.10;;;;;;;20.98;25.52;100417.54;104450;1263;60547;-68
2023/05/06 09:27:28;;;;;;;2.10;0.80;;;;;;;21.06;25.12;100417.65;104752;1254;61187;-67
2023/05/06 09:30:07;;;;;;;;;;;;;;;21.07;24.43;100416.86;104493;1264;74493;-74
2023/05/06 09:32:34;;;;;;;0.70;0.70;;;;;;;21.15;24.94;100423.71;104696;1257;70090;-69
2023/05/06 09:35:08;;;;;;;1.10;1.00;;;;;;;21.10;24.89;100424.46;104421;1267;73096;-70
2023/05/06 09:37:35;;;;;;;1.70;0.70;;;;;;;21.11;24.39;100424.55;104512;1258;60839;-72
2023/05/06 09:40:02;;;;;;;1.70;0.90;;;;;;;21.07;24.02;100418.83;104449;1258;61354;-72
2023/05/06 09:42:30;;;;;;;0.90;0.90;;;;;;;21.10;24.82;100424.78;104598;1269;75490;-70
2023/05/06 09:44:58;;;;;;;0.90;0.90;;;;;;;21.16;24.55;100421.90;104459;1260;69672;-71
2023/05/06 09:47:32;;;;;;;1.00;0.80;;;;;;;21.18;24.30;100416.55;104361;1258;72729;-70
2023/05/06 09:50:01;;;;;;;2.30;0.90;;;;;;;21.24;24.30;100408.84;104259;1272;61358;-71
2023/05/06 09:52:28;;;;;;;5.40;1.20;;;;;;;21.23;24.07;100409.09;104592;1258;60549;-67
2023/05/06 09:54:55;;;;;;;0.90;0.90;;;;;;;21.37;24.30;100413.20;104532;1254;73942;-66
2023/05/06 09:57:22;;;;;;;3.40;0.80;;;;;;;21.38;23.92;100406.33;104239;1264;69187;-68
2023/05/06 09:59:51;;;;;;;3.40;1.10;;;;;;;21.37;24.09;100408.48;104441;1266;72744;-68
2023/05/06 10:02:18;;;;;;;3.00;0.90;;;;;;;21.34;23.73;100405.56;104411;1256;60456;-67
2023/05/06 10:04:45;;;;;;;1.50;1.00;;;;;;;21.33;23.51;100411.48;104424;1276;60156;-67
2023/05/06 10:07:13;;;;;;;1.20;0.90;;;;;;;21.41;23.55;100406.98;104772;1254;73290;-69
2023/05/06 10:09:40;;;;;;;2.80;1.20;;;;;;;21.47;23.88;100407.60;104105;1266;69028;-67
2023/05/06 10:12:07;;;;;;;0.70;0.70;;;;;;;21.52;23.70;100406.70;104249;1259;72935;-69
2023/05/06 10:14:37;;;;;;;0.70;0.70;;;;;;;21.57;23.54;100410.79;104558;1255;60621;-68
2023/05/06 10:17:07;;;;;;;4.00;1.00;;;;;;;21.67;23.52;100407.55;104566;1271;60553;-69
2023/05/06 10:19:35;;;;;;;2.50;1.10;;;;;;;21.62;23.09;100409.52;104362;1254;73141;-69
2023/05/06 10:22:07;;;;;;;1.70;1.10;;;;;;;21.63;23.53;100404.60;104033;1269;69972;-68
2023/05/06 10:24:40;;;;;;;2.10;0.90;;;;;;;21.73;23.20;100405.42;104297;1255;72923;-69
2023/05/06 10:27:07;;;;;;;0.90;0.90;;;;;;;21.76;23.09;100402.71;104374;1254;60501;-71
2023/05/06 10:29:35;;;;;;;0.90;0.90;;;;;;;21.89;23.11;100411.33;104271;1254;60539;-70
2023/05/06 10:32:02;;;;;;;1.00;0.90;;;;;;;21.99;22.92;100414.00;104305;1257;73179;-67
2023/05/06 10:34:32;;;;;;;1.20;1.10;;;;;;;21.94;22.75;100409.32;104464;1257;69082;-68
2023/05/06 10:36:59;;;;;;;1.60;1.10;;;;;;;21.99;22.61;100397.04;104250;1275;72067;-69
2023/05/06 10:39:25;;;;;;;1.50;1.00;;;;;;;22.14;22.73;100411.58;104179;1273;61233;-67
2023/05/06 10:41:53;;;;;;;2.10;1.10;;;;;;;22.22;21.85;100407.16;104411;1267;60708;-69
2023/05/06 10:44:56;;;;;;;1.40;1.00;;;;;;;22.28;21.90;100409.00;104494;1255;73426;-68
2023/05/06 10:47:23;;;;;;;1.90;0.80;;;;;;;22.30;21.89;100404.42;104428;1260;70143;-68
2023/05/06 10:50:22;;;;;;;1.40;1.00;;;;;;;22.37;21.46;100402.99;104288;1255;74201;-69
2023/05/06 10:52:54;;;;;;;2.10;1.00;;;;;;;22.27;20.95;100402.48;104304;1254;60540;-69
2023/05/06 10:55:31;;;;;;;2.40;1.00;;;;;;;22.27;21.67;100403.01;104568;1253;61201;-67
2023/05/06 10:58:01;;;;;;;2.20;1.10;;;;;;;22.31;21.43;100405.79;104821;1255;74297;-69
2023/05/06 11:00:32;;;;;;;1.30;0.80;;;;;;;22.31;21.60;100408.22;104613;1254;69031;-68
2023/05/06 11:03:06;;;;;;;0.90;0.90;;;;;;;22.29;22.19;100404.13;104487;1260;73803;-67
2023/05/06 11:05:47;;;;;;;3.40;1.20;;;;;;;22.35;21.57;100403.86;104456;1254;60476;-67
2023/05/06 11:08:23;;;;;;;1.40;1.20;;;;;;;22.36;21.42;100403.37;104580;1254;60457;-68
2023/05/06 11:10:53;;;;;;;0.90;0.90;;;;;;;22.45;21.05;100405.14;104702;1257;73357;-66
2023/05/06 11:13:28;;;;;;;2.10;0.80;;;;;;;22.46;20.88;100402.05;104443;1258;69988;-65
2023/05/06 11:15:56;;;;;;;1.10;1.10;;;;;;;22.50;21.28;100404.80;104491;1257;72898;-67
2023/05/06 11:18:23;;;;;;;0.90;0.90;;;;;;;22.41;21.23;100396.41;104443;1255;60550;-65
2023/05/06 11:21:01;;;;;;;2.40;1.00;;;;;;;22.47;21.48;100396.08;104600;1254;60582;-68
2023/05/06 11:23:40;;;;;;;1.40;1.10;;;;;;;22.56;21.34;100393.57;104529;1257;74371;-66
2023/05/06 11:26:10;;;;;;;2.60;1.50;;;;;;;22.64;21.26;100391.34;104465;1267;70250;-69